< < Back
Terminal Aerodrome Forecast


Current Version              Previous Versions:   1  2  3  4  5  6  7  8  9  

Terminal Aerodrome Forecast

372
FTUS42 KTAE 281720
TAFTLH
TAF
KTLH 281720Z 2818/2918 02006KT P6SM SCT050
     FM290000 VRB03KT P6SM SCT250=

Latest METAR

411
SAUS80 KWBC 281700 RRB
MTRTLH
METAR KTLH 281653Z 04006KT 10SM FEW040 SCT250 36/21 A2997 RMK AO2 SLP147
T03560211


USA.gov is the U.S. government's official web portal to all federal, state and local government web resources and services.